createdAt,value
2018-12-18T00:00:21.226Z,3.98
2018-12-18T00:02:51.490Z,4.12
2018-12-18T00:05:26.117Z,4.12
2018-12-18T00:07:54.748Z,4.33
2018-12-18T00:10:25.379Z,4.04
2018-12-18T00:12:53.895Z,3.96
2018-12-18T00:15:22.382Z,4.04
2018-12-18T00:17:50.835Z,3.94
2018-12-18T00:20:19.990Z,4.09
2018-12-18T00:22:48.442Z,3.89
2018-12-18T00:25:17.078Z,3.87
2018-12-18T00:27:45.637Z,4.16
2018-12-18T00:30:14.168Z,3.91
2018-12-18T00:32:42.754Z,4.10
2018-12-18T00:35:11.423Z,4.00
2018-12-18T00:37:39.891Z,3.89
2018-12-18T00:40:08.608Z,3.91
2018-12-18T00:42:37.100Z,3.87
2018-12-18T00:45:06.203Z,3.88
2018-12-18T00:47:34.675Z,3.89
2018-12-18T00:50:03.233Z,3.78
2018-12-18T00:52:31.886Z,3.83
2018-12-18T00:55:00.461Z,3.86
2018-12-18T00:57:29.018Z,3.82
2018-12-18T00:59:57.521Z,3.78
2018-12-18T01:02:26.213Z,3.88
2018-12-18T01:04:54.694Z,3.87
2018-12-18T01:07:23.176Z,3.85
2018-12-18T01:09:51.777Z,3.86
2018-12-18T01:12:20.330Z,3.89
2018-12-18T01:14:48.873Z,3.90
2018-12-18T01:17:17.426Z,3.88
2018-12-18T01:19:45.922Z,3.90
2018-12-18T01:22:14.502Z,3.86
2018-12-18T01:24:43.012Z,3.86
2018-12-18T01:27:11.582Z,3.79
2018-12-18T01:29:40.070Z,3.64
2018-12-18T01:32:08.561Z,3.77
2018-12-18T01:34:37.106Z,3.64
2018-12-18T01:37:05.605Z,3.70
2018-12-18T01:39:34.119Z,3.70
2018-12-18T01:42:02.712Z,3.80
2018-12-18T01:44:31.199Z,3.88
2018-12-18T01:46:59.766Z,3.82
2018-12-18T01:49:28.250Z,3.81
2018-12-18T01:51:56.849Z,3.84
2018-12-18T01:54:25.314Z,3.87
2018-12-18T01:56:53.834Z,3.81
2018-12-18T01:59:22.397Z,3.87
2018-12-18T02:01:50.841Z,3.89
2018-12-18T02:04:19.357Z,3.94
2018-12-18T02:06:47.824Z,3.89
2018-12-18T02:09:16.469Z,3.86
2018-12-18T02:11:44.931Z,3.90
2018-12-18T02:14:13.446Z,3.88
2018-12-18T02:16:41.918Z,3.86
2018-12-18T02:19:10.990Z,3.87
2018-12-18T02:21:39.828Z,3.83
2018-12-18T02:24:08.566Z,3.85
2018-12-18T02:26:37.073Z,3.83
2018-12-18T02:29:05.523Z,3.80
2018-12-18T02:31:34.093Z,3.83
2018-12-18T02:34:02.576Z,3.78
2018-12-18T02:36:31.514Z,3.78
2018-12-18T02:39:00.027Z,3.77
2018-12-18T02:41:28.535Z,3.74
2018-12-18T02:43:57.103Z,3.67
2018-12-18T02:46:25.714Z,3.63
2018-12-18T02:48:54.310Z,3.59
2018-12-18T02:51:22.901Z,3.58
2018-12-18T02:53:51.363Z,3.70
2018-12-18T02:56:19.850Z,3.60
2018-12-18T02:58:48.290Z,3.63
2018-12-18T03:01:16.839Z,3.64
2018-12-18T03:03:45.309Z,3.69
2018-12-18T03:06:13.786Z,3.67
2018-12-18T03:08:42.310Z,3.66
2018-12-18T03:11:14.923Z,3.71
2018-12-18T03:13:43.378Z,3.76
2018-12-18T03:16:11.958Z,3.80
2018-12-18T03:18:40.514Z,3.79
2018-12-18T03:21:09.648Z,3.74
2018-12-18T03:23:38.205Z,3.73
2018-12-18T03:26:06.729Z,3.67
2018-12-18T03:28:35.282Z,3.59
2018-12-18T03:31:04.408Z,3.63
2018-12-18T03:33:32.955Z,3.58
2018-12-18T03:36:01.491Z,3.48
2018-12-18T03:38:29.942Z,3.48
2018-12-18T03:40:58.451Z,3.42
2018-12-18T03:43:27.015Z,3.31
2018-12-18T03:45:56.550Z,3.53
2018-12-18T03:48:25.035Z,3.49
2018-12-18T03:50:53.617Z,3.36
2018-12-18T03:53:22.236Z,3.25
2018-12-18T03:55:50.701Z,3.16
2018-12-18T03:58:19.268Z,3.25
2018-12-18T04:00:47.748Z,3.30
2018-12-18T04:03:16.326Z,3.20
2018-12-18T04:05:44.850Z,3.32
2018-12-18T04:08:13.463Z,3.33
2018-12-18T04:10:41.944Z,3.19
2018-12-18T04:13:10.506Z,3.19
2018-12-18T04:15:39.066Z,3.20
2018-12-18T04:18:07.560Z,3.19
2018-12-18T04:20:36.050Z,3.33
2018-12-18T04:23:04.615Z,3.19
2018-12-18T04:25:33.152Z,3.11
2018-12-18T04:28:01.630Z,3.21
2018-12-18T04:30:30.118Z,3.18
2018-12-18T04:32:58.581Z,3.19
2018-12-18T04:35:27.124Z,3.19
2018-12-18T04:37:55.782Z,3.19
2018-12-18T04:40:24.992Z,3.23
2018-12-18T04:42:53.669Z,3.13
2018-12-18T04:45:22.158Z,3.11
2018-12-18T04:47:50.608Z,3.17
2018-12-18T04:50:20.806Z,3.12
2018-12-18T04:52:49.553Z,3.09
2018-12-18T04:55:18.084Z,3.29
2018-12-18T04:57:46.530Z,3.29
2018-12-18T05:00:15.751Z,3.21
2018-12-18T05:02:44.826Z,3.17
2018-12-18T05:05:13.290Z,3.21
2018-12-18T05:07:41.793Z,3.23
2018-12-18T05:10:10.299Z,3.26
2018-12-18T05:12:38.762Z,3.25
2018-12-18T05:15:07.282Z,3.56
2018-12-18T05:17:35.783Z,3.28
2018-12-18T05:20:04.582Z,3.32
2018-12-18T05:22:33.155Z,3.37
2018-12-18T05:25:01.743Z,3.31
2018-12-18T05:27:30.310Z,3.25
2018-12-18T05:29:58.834Z,3.14
2018-12-18T05:32:27.670Z,3.11
2018-12-18T05:34:56.703Z,3.09
2018-12-18T05:37:25.550Z,3.09
2018-12-18T05:39:55.118Z,3.09
2018-12-18T05:42:24.426Z,3.07
2018-12-18T05:44:53.053Z,2.96
2018-12-18T05:47:21.509Z,3.02
2018-12-18T05:49:50.072Z,2.99
2018-12-18T05:52:18.538Z,2.99
2018-12-18T05:54:47.006Z,3.01
2018-12-18T05:57:15.510Z,2.97
2018-12-18T05:59:44.509Z,2.98
2018-12-18T06:02:14.865Z,3.04
2018-12-18T06:04:43.919Z,3.03
2018-12-18T06:07:16.585Z,3.00
2018-12-18T06:09:46.377Z,2.99
2018-12-18T06:12:17.324Z,2.96
2018-12-18T06:14:47.829Z,2.95
2018-12-18T06:17:17.331Z,2.92
2018-12-18T06:19:46.075Z,2.93
2018-12-18T06:22:14.801Z,2.99
2018-12-18T06:24:44.253Z,2.97
2018-12-18T06:27:12.819Z,2.98
2018-12-18T06:29:41.618Z,3.13
2018-12-18T06:32:10.581Z,3.09
2018-12-18T06:34:39.375Z,3.12
2018-12-18T06:37:08.118Z,2.98
2018-12-18T06:39:38.525Z,2.99
2018-12-18T06:42:08.049Z,2.97
2018-12-18T06:44:36.770Z,3.02
2018-12-18T06:47:05.490Z,3.00
2018-12-18T06:49:34.967Z,3.08
2018-12-18T06:52:03.797Z,3.01
2018-12-18T06:54:32.481Z,2.94
2018-12-18T06:57:02.299Z,2.84
2018-12-18T06:59:31.003Z,2.79
2018-12-18T07:02:00.193Z,2.94
2018-12-18T07:04:28.994Z,2.88
2018-12-18T07:06:57.482Z,3.09
2018-12-18T07:09:25.944Z,2.87
2018-12-18T07:11:54.481Z,2.86
2018-12-18T07:14:23.059Z,2.79
2018-12-18T07:16:51.539Z,2.77
2018-12-18T07:19:20.109Z,2.77
2018-12-18T07:21:48.630Z,2.95
2018-12-18T07:24:17.434Z,2.89
2018-12-18T07:26:46.670Z,2.82
2018-12-18T07:29:15.286Z,2.82
2018-12-18T07:31:43.759Z,2.78
2018-12-18T07:34:13.222Z,2.87
2018-12-18T07:36:41.706Z,2.74
2018-12-18T07:39:10.302Z,2.66
2018-12-18T07:41:38.859Z,2.76
2018-12-18T07:44:08.031Z,2.60
2018-12-18T07:46:36.646Z,2.57
2018-12-18T07:49:05.174Z,2.68
2018-12-18T07:51:33.689Z,2.65
2018-12-18T07:54:02.245Z,2.62
2018-12-18T07:56:30.822Z,2.52
2018-12-18T07:58:59.959Z,2.56
2018-12-18T08:01:28.458Z,2.47
2018-12-18T08:03:57.042Z,2.56
2018-12-18T08:06:25.522Z,2.48
2018-12-18T08:08:54.030Z,2.53
2018-12-18T08:11:22.620Z,2.52
2018-12-18T08:13:51.366Z,2.68
2018-12-18T08:16:20.079Z,2.60
2018-12-18T08:18:48.654Z,2.69
2018-12-18T08:21:17.203Z,2.94
2018-12-18T08:23:45.738Z,2.98
2018-12-18T08:26:14.274Z,3.36
2018-12-18T08:28:42.808Z,3.48
2018-12-18T08:31:11.486Z,3.79
2018-12-18T08:33:40.058Z,4.11
2018-12-18T08:36:09.370Z,4.54
2018-12-18T08:38:38.298Z,4.44
2018-12-18T08:41:06.742Z,4.60
2018-12-18T08:43:35.322Z,5.16
2018-12-18T08:46:09.998Z,5.16
2018-12-18T08:48:34.687Z,5.20
2018-12-18T08:51:03.166Z,5.30
2018-12-18T08:53:31.662Z,5.20
2018-12-18T08:56:00.130Z,5.38
2018-12-18T08:58:28.650Z,5.03
2018-12-18T09:00:57.164Z,4.84
2018-12-18T09:03:26.197Z,4.75
2018-12-18T09:05:54.835Z,4.80
2018-12-18T09:08:24.003Z,4.88
2018-12-18T09:10:52.602Z,5.13
2018-12-18T09:13:21.154Z,4.93
2018-12-18T09:15:56.729Z,5.03
2018-12-18T09:18:25.332Z,5.10
2018-12-18T09:20:53.940Z,5.16
2018-12-18T09:23:22.628Z,5.31
2018-12-18T09:25:51.131Z,4.60
2018-12-18T09:28:19.625Z,4.99
2018-12-18T09:30:48.850Z,5.27
2018-12-18T09:33:17.317Z,5.02
2018-12-18T09:35:49.626Z,5.19
2018-12-18T09:38:21.632Z,5.15
2018-12-18T09:40:55.322Z,4.90
2018-12-18T09:43:29.178Z,5.12
2018-12-18T09:45:57.642Z,5.60
2018-12-18T09:48:26.129Z,5.79
2018-12-18T09:50:54.646Z,5.91
2018-12-18T09:53:23.154Z,5.92
2018-12-18T09:55:51.771Z,6.14
2018-12-18T09:58:20.318Z,6.58
2018-12-18T10:00:48.917Z,7.38
2018-12-18T10:03:17.417Z,7.98
2018-12-18T10:05:46.024Z,8.10
2018-12-18T10:08:14.502Z,9.32
2018-12-18T10:10:43.006Z,9.75
2018-12-18T10:13:11.588Z,9.57
2018-12-18T10:15:40.120Z,8.95
2018-12-18T10:18:08.619Z,10.17
2018-12-18T10:20:37.082Z,10.99
2018-12-18T10:23:05.646Z,9.36
2018-12-18T10:25:34.144Z,10.41
2018-12-18T10:28:02.677Z,10.58
2018-12-18T10:30:31.151Z,9.75
2018-12-18T10:32:59.706Z,9.05
2018-12-18T10:35:28.299Z,8.47
2018-12-18T10:37:56.926Z,9.58
2018-12-18T10:40:25.394Z,9.46
2018-12-18T10:42:53.892Z,9.83
2018-12-18T10:45:22.889Z,10.01
2018-12-18T10:47:51.454Z,10.49
2018-12-18T10:50:19.928Z,9.92
2018-12-18T10:52:48.434Z,8.56
2018-12-18T10:55:16.911Z,8.50
2018-12-18T10:57:45.558Z,8.29
2018-12-18T11:00:18.754Z,7.19
2018-12-18T11:02:47.934Z,7.13
2018-12-18T11:05:16.578Z,7.22
2018-12-18T11:07:45.678Z,6.63
2018-12-18T11:10:14.148Z,6.82
2018-12-18T11:12:46.801Z,7.08
2018-12-18T11:15:15.265Z,6.91
2018-12-18T11:17:43.768Z,6.87
2018-12-18T11:20:12.226Z,7.17
2018-12-18T11:22:40.738Z,7.90
2018-12-18T11:25:09.310Z,8.27
2018-12-18T11:27:37.800Z,8.45
2018-12-18T11:30:06.931Z,8.91
2018-12-18T11:32:35.502Z,8.81
2018-12-18T11:35:04.191Z,9.39
2018-12-18T11:37:32.668Z,8.70
2018-12-18T11:40:01.237Z,9.35
2018-12-18T11:42:30.216Z,8.80
2018-12-18T11:44:59.280Z,9.16
2018-12-18T11:47:27.789Z,8.97
2018-12-18T11:49:57.286Z,9.63
2018-12-18T11:52:25.866Z,9.83
2018-12-18T11:54:54.390Z,9.70
2018-12-18T11:57:23.926Z,9.39
2018-12-18T11:59:52.999Z,10.75
2018-12-18T12:02:21.559Z,9.87
2018-12-18T12:04:50.086Z,9.69
2018-12-18T12:07:18.751Z,9.84
2018-12-18T12:09:47.271Z,9.20
2018-12-18T12:12:15.788Z,8.38
2018-12-18T12:14:44.594Z,8.58
2018-12-18T12:17:13.393Z,7.95
2018-12-18T12:19:42.014Z,7.99
2018-12-18T12:22:10.606Z,7.93
2018-12-18T12:24:39.088Z,7.63
2018-12-18T12:27:12.794Z,7.46
2018-12-18T12:29:41.245Z,7.81
2018-12-18T12:32:09.842Z,7.29
2018-12-18T12:34:38.309Z,6.86
2018-12-18T12:37:07.306Z,6.66
2018-12-18T12:39:35.829Z,7.06
2018-12-18T12:42:04.402Z,8.13
2018-12-18T12:44:32.925Z,8.31
2018-12-18T12:47:01.642Z,8.13
2018-12-18T12:49:35.392Z,8.24
2018-12-18T12:52:04.035Z,8.54
2018-12-18T12:54:32.514Z,8.78
2018-12-18T12:57:01.142Z,8.69
2018-12-18T12:59:29.616Z,8.50
2018-12-18T13:01:58.293Z,8.26
2018-12-18T13:04:26.872Z,8.71
2018-12-18T13:06:55.360Z,7.95
2018-12-18T13:09:23.831Z,7.69
2018-12-18T13:11:52.300Z,7.90
2018-12-18T13:14:20.937Z,8.36
2018-12-18T13:16:49.529Z,8.85
2018-12-18T13:19:18.111Z,8.36
2018-12-18T13:21:46.613Z,7.36
2018-12-18T13:24:16.248Z,7.43
2018-12-18T13:26:44.790Z,7.49
2018-12-18T13:29:13.292Z,7.31
2018-12-18T13:31:43.061Z,6.83
2018-12-18T13:34:11.550Z,6.61
2018-12-18T13:36:42.985Z,6.05
2018-12-18T13:39:10.519Z,5.97
2018-12-18T13:41:39.538Z,5.92
2018-12-18T13:44:07.983Z,6.04
2018-12-18T13:46:36.502Z,6.26
2018-12-18T13:49:05.019Z,5.93
2018-12-18T13:51:34.936Z,5.52
2018-12-18T13:54:03.476Z,5.68
2018-12-18T13:56:32.905Z,5.42
2018-12-18T13:59:01.379Z,5.35
2018-12-18T14:01:29.865Z,5.40
2018-12-18T14:03:58.317Z,5.08
2018-12-18T14:06:27.013Z,5.04
2018-12-18T14:08:55.519Z,5.11
2018-12-18T14:11:24.080Z,4.94
2018-12-18T14:13:53.146Z,4.64
2018-12-18T14:16:21.686Z,4.46
2018-12-18T14:18:50.230Z,4.17
2018-12-18T14:21:18.742Z,4.03
2018-12-18T14:23:47.388Z,3.77
2018-12-18T14:26:15.886Z,3.51
2018-12-18T14:28:44.437Z,3.36
2018-12-18T14:31:13.011Z,3.54
2018-12-18T14:33:41.597Z,3.31
2018-12-18T14:36:10.200Z,3.24
2018-12-18T14:38:45.161Z,3.19
2018-12-18T14:41:14.664Z,3.24
2018-12-18T14:43:43.144Z,3.25
2018-12-18T14:46:11.702Z,3.29
2018-12-18T14:48:40.155Z,3.26
2018-12-18T14:51:09.246Z,3.24
2018-12-18T14:53:37.833Z,3.20
2018-12-18T14:56:07.116Z,3.21
2018-12-18T14:58:35.558Z,3.21
2018-12-18T15:01:04.092Z,3.30
2018-12-18T15:03:32.565Z,3.08
2018-12-18T15:06:01.041Z,2.96
2018-12-18T15:08:29.742Z,3.02
2018-12-18T15:10:58.243Z,3.19
2018-12-18T15:13:28.828Z,3.12
2018-12-18T15:15:57.370Z,3.32
2018-12-18T15:18:25.830Z,3.17
2018-12-18T15:20:54.331Z,3.19
2018-12-18T15:23:22.865Z,3.23
2018-12-18T15:25:52.135Z,3.29
2018-12-18T15:28:20.586Z,3.22
2018-12-18T15:30:49.195Z,3.39
2018-12-18T15:33:17.739Z,3.33
2018-12-18T15:35:46.987Z,3.40
2018-12-18T15:38:15.551Z,3.41
2018-12-18T15:40:44.512Z,3.45
2018-12-18T15:43:13.027Z,3.45
2018-12-18T15:45:41.668Z,3.31
2018-12-18T15:48:10.118Z,3.57
2018-12-18T15:50:38.702Z,3.45
2018-12-18T15:53:07.854Z,3.35
2018-12-18T15:55:36.367Z,3.29
2018-12-18T15:58:04.858Z,3.38
2018-12-18T16:00:33.403Z,3.40
2018-12-18T16:03:01.850Z,3.42
2018-12-18T16:05:30.460Z,3.40
2018-12-18T16:07:59.017Z,3.47
2018-12-18T16:10:27.930Z,3.59
2018-12-18T16:12:56.556Z,3.50
2018-12-18T16:15:25.034Z,3.55
2018-12-18T16:17:53.606Z,3.74
2018-12-18T16:20:22.189Z,3.49
2018-12-18T16:22:50.760Z,3.53
2018-12-18T16:25:22.004Z,3.44
2018-12-18T16:27:50.602Z,3.28
2018-12-18T16:30:19.314Z,3.42
2018-12-18T16:32:48.691Z,3.37
2018-12-18T16:35:17.186Z,3.13
2018-12-18T16:37:46.403Z,3.01
2018-12-18T16:40:14.915Z,2.97
2018-12-18T16:42:43.478Z,3.13
2018-12-18T16:45:12.116Z,3.09
2018-12-18T16:47:40.723Z,3.14
2018-12-18T16:50:09.714Z,3.38
2018-12-18T16:52:38.893Z,3.08
2018-12-18T16:55:07.899Z,2.95
2018-12-18T16:57:36.437Z,3.10
2018-12-18T17:00:06.079Z,3.34
2018-12-18T17:02:34.670Z,2.82
2018-12-18T17:05:03.346Z,2.90
2018-12-18T17:07:31.885Z,2.84
2018-12-18T17:10:00.356Z,2.76
2018-12-18T17:12:29.526Z,2.64
2018-12-18T17:14:58.106Z,2.57
2018-12-18T17:17:26.619Z,2.67
2018-12-18T17:19:55.166Z,2.52
2018-12-18T17:22:23.750Z,2.50
2018-12-18T17:24:52.237Z,2.72
2018-12-18T17:27:20.711Z,2.70
2018-12-18T17:29:49.228Z,2.69
2018-12-18T17:32:18.577Z,2.74
2018-12-18T17:34:47.782Z,2.76
2018-12-18T17:37:16.882Z,2.82
2018-12-18T17:39:45.990Z,3.08
2018-12-18T17:42:14.488Z,3.10
2018-12-18T17:44:42.979Z,3.02
2018-12-18T17:47:11.461Z,3.05
2018-12-18T17:49:40.131Z,2.85
2018-12-18T17:52:09.230Z,2.74
2018-12-18T17:54:38.127Z,2.62
2018-12-18T17:57:06.581Z,2.70
2018-12-18T17:59:35.090Z,2.57
2018-12-18T18:02:03.898Z,2.47
2018-12-18T18:04:32.436Z,2.49
2018-12-18T18:07:01.018Z,2.66
2018-12-18T18:09:29.610Z,2.81
2018-12-18T18:11:58.139Z,2.48
2018-12-18T18:14:26.686Z,2.61
2018-12-18T18:16:55.258Z,2.47
2018-12-18T18:19:23.784Z,2.52
2018-12-18T18:21:53.310Z,2.45
2018-12-18T18:24:21.800Z,2.63
2018-12-18T18:26:50.264Z,2.51
2018-12-18T18:29:18.750Z,2.56
2018-12-18T18:31:47.367Z,2.62
2018-12-18T18:34:15.943Z,2.55
2018-12-18T18:36:44.442Z,2.40
2018-12-18T18:39:13.006Z,2.47
2018-12-18T18:41:41.485Z,2.52
2018-12-18T18:44:10.217Z,2.38
2018-12-18T18:46:38.886Z,2.49
2018-12-18T18:49:07.379Z,2.45
2018-12-18T18:51:35.892Z,2.53
2018-12-18T18:54:05.224Z,2.43
2018-12-18T18:56:33.711Z,2.49
2018-12-18T18:59:02.727Z,2.50
2018-12-18T19:01:31.202Z,2.32
2018-12-18T19:03:59.829Z,2.28
2018-12-18T19:06:29.038Z,2.48
2018-12-18T19:08:57.603Z,2.40
2018-12-18T19:11:26.282Z,2.42
2018-12-18T19:13:54.860Z,2.32
2018-12-18T19:16:23.473Z,2.33
2018-12-18T19:18:52.067Z,2.30
2018-12-18T19:21:20.597Z,2.39
2018-12-18T19:23:49.987Z,2.32
2018-12-18T19:26:18.631Z,2.38
2018-12-18T19:28:50.349Z,2.24
2018-12-18T19:31:18.436Z,2.20
2018-12-18T19:33:47.161Z,2.36
2018-12-18T19:36:16.239Z,2.27
2018-12-18T19:38:44.738Z,2.49
2018-12-18T19:41:13.305Z,2.35
2018-12-18T19:43:41.809Z,2.23
2018-12-18T19:46:10.422Z,2.22
2018-12-18T19:48:39.257Z,2.34
2018-12-18T19:51:07.782Z,2.25
2018-12-18T19:53:36.347Z,2.32
2018-12-18T19:56:05.077Z,2.13
2018-12-18T19:58:33.560Z,2.00
2018-12-18T20:01:02.111Z,1.99
2018-12-18T20:03:30.658Z,2.05
2018-12-18T20:05:59.186Z,2.01
2018-12-18T20:08:27.852Z,2.00
2018-12-18T20:10:57.259Z,2.00
2018-12-18T20:13:25.900Z,1.99
2018-12-18T20:15:54.356Z,1.99
2018-12-18T20:18:24.248Z,2.07
2018-12-18T20:20:52.925Z,2.00
2018-12-18T20:23:22.147Z,2.06
2018-12-18T20:25:51.658Z,2.12
2018-12-18T20:28:20.866Z,2.14
2018-12-18T20:30:50.922Z,2.04
2018-12-18T20:33:21.702Z,2.15
2018-12-18T20:35:50.374Z,2.17
2018-12-18T20:38:19.770Z,2.14
2018-12-18T20:40:50.660Z,1.92
2018-12-18T20:43:21.364Z,1.86
2018-12-18T20:45:52.011Z,1.75
2018-12-18T20:48:22.311Z,1.69
2018-12-18T20:50:52.734Z,1.84
2018-12-18T20:53:23.441Z,1.79
2018-12-18T20:55:54.578Z,1.61
2018-12-18T20:58:23.673Z,1.62
2018-12-18T21:00:54.587Z,1.66
2018-12-18T21:03:25.248Z,1.67
2018-12-18T21:05:57.232Z,1.64
2018-12-18T21:08:28.041Z,1.87
2018-12-18T21:10:59.773Z,1.73
2018-12-18T21:13:31.586Z,1.66
2018-12-18T21:16:03.265Z,1.61
2018-12-18T21:18:32.980Z,1.48
2018-12-18T21:21:03.761Z,1.45
2018-12-18T21:23:33.808Z,1.65
2018-12-18T21:26:03.087Z,1.69
2018-12-18T21:28:32.021Z,1.59
2018-12-18T21:31:01.305Z,1.59
2018-12-18T21:33:30.455Z,1.72
2018-12-18T21:35:59.518Z,1.56
2018-12-18T21:38:30.646Z,1.70
2018-12-18T21:41:01.358Z,1.59
2018-12-18T21:43:31.814Z,1.45
2018-12-18T21:46:00.829Z,1.61
2018-12-18T21:48:29.527Z,1.70
2018-12-18T21:50:58.274Z,1.70
2018-12-18T21:53:26.863Z,1.52
2018-12-18T21:55:55.872Z,1.73
2018-12-18T21:58:24.331Z,1.48
2018-12-18T22:00:53.259Z,1.32
2018-12-18T22:03:21.873Z,1.36
2018-12-18T22:05:50.814Z,1.40
2018-12-18T22:08:19.477Z,1.20
2018-12-18T22:10:48.110Z,1.18
2018-12-18T22:13:17.434Z,1.23
2018-12-18T22:15:46.066Z,1.26
2018-12-18T22:18:14.704Z,1.14
2018-12-18T22:20:44.023Z,1.00
2018-12-18T22:23:12.850Z,0.94
2018-12-18T22:25:41.468Z,0.89
2018-12-18T22:28:10.213Z,0.81
2018-12-18T22:30:38.825Z,0.87
2018-12-18T22:33:07.798Z,0.78
2018-12-18T22:35:36.386Z,0.79
2018-12-18T22:38:05.099Z,0.80
2018-12-18T22:40:33.623Z,0.69
2018-12-18T22:43:02.129Z,0.72
2018-12-18T22:45:31.406Z,0.78
2018-12-18T22:48:00.656Z,0.79
2018-12-18T22:50:29.191Z,0.83
2018-12-18T22:52:57.780Z,0.84
2018-12-18T22:55:26.631Z,0.77
2018-12-18T22:57:55.106Z,0.87
2018-12-18T23:01:27.194Z,0.80
2018-12-18T23:03:55.658Z,0.83
2018-12-18T23:06:24.458Z,0.84
2018-12-18T23:08:52.946Z,0.84
2018-12-18T23:11:21.422Z,0.88
2018-12-18T23:13:49.901Z,0.85
2018-12-18T23:16:18.432Z,0.78
2018-12-18T23:18:47.034Z,0.89
2018-12-18T23:21:15.605Z,0.97
2018-12-18T23:23:44.206Z,0.81
2018-12-18T23:26:12.794Z,0.83
2018-12-18T23:28:41.706Z,0.81
2018-12-18T23:31:10.312Z,0.80
2018-12-18T23:33:39.059Z,0.75
2018-12-18T23:36:07.859Z,0.79
2018-12-18T23:38:38.011Z,0.74
2018-12-18T23:41:06.562Z,0.79
2018-12-18T23:43:35.025Z,0.78
2018-12-18T23:46:03.662Z,0.66
2018-12-18T23:48:32.294Z,0.73
2018-12-18T23:51:00.762Z,0.77
2018-12-18T23:53:29.622Z,0.73
2018-12-18T23:55:58.590Z,0.81
2018-12-18T23:58:27.049Z,0.75
